PWSweather.com
Personal Weather Stations
Station Observations
KVAGLENALL
West Henrico, Glen Allen, VA 23060-6503

West HenricoGlen Allen, VA 23060-6503

Lat: 37.6554, Lon: -77.5693

Elevation: 273

Station Type: Davis Vantage Pro II

www.glenallenweather.com

High Low Average
Temperature 70.1°F21.2°C 58.7°F14.8°C 65.7°F18.7°C
Dew Point 66.8°F19.3°C 56.7°F13.7°C 64.1°F17.8°C
Winds 13.1 mph 21.1 kmh 1.0 mph 1.6 kmh 6.0 mph S9.7 kmh S
Wind Gusts 20.2 mph32.5 kmh 3.1 mph5.0 kmh 11.0 mph17.7 kmh
Humidity 97% 89% 94%
Pressure 30.07 in1018.3 mb 29.50 in999.0 mb -
Precipitation 0.00 in0.0 mm - -
Hour Temp Dew Point Humidity Winds Wind Gusts Pressure Precip Precip Rate Daily Precip Total
12:00 AM 61.2°F16.2°C 59.5°F15.3°C 94% 7.1 mph E11.4 kmh E 9.1 mph14.6 kmh 30.07 in1018.3 mb 0.00 in0.0 mm 0.00 in0.0 mm 0.00 in0.0 mm
12:15 AM 61.6°F16.4°C 59.9°F15.5°C 94% 4.1 mph SE6.6 kmh SE 12.2 mph19.6 kmh 30.06 in1017.9 mb 0.00 in0.0 mm 0.00 in0.0 mm 0.00 in0.0 mm
12:30 AM 61.8°F16.6°C 60.1°F15.6°C 94% 5.1 mph SE8.2 kmh SE 11.2 mph18.0 kmh 30.04 in1017.3 mb 0.00 in0.0 mm 0.00 in0.0 mm 0.00 in0.0 mm
12:45 AM 61.9°F16.6°C 60.2°F15.7°C 94% 4.1 mph SSE6.6 kmh SSE 10.1 mph16.3 kmh 30.03 in1016.9 mb 0.00 in0.0 mm 0.00 in0.0 mm 0.00 in0.0 mm
01:00 AM 62.1°F16.7°C 60.4°F15.8°C 94% 7.1 mph SE11.4 kmh SE 7.1 mph11.4 kmh 30.02 in1016.6 mb 0.00 in0.0 mm 0.00 in0.0 mm 0.00 in0.0 mm
01:15 AM 62.2°F16.8°C 60.5°F15.8°C 94% 4.1 mph SSE6.6 kmh SSE 8.1 mph13.0 kmh 30.01 in1016.3 mb 0.01 in0.3 mm 0.04 in1.0 mm 0.01 in0.3 mm
01:30 AM 62.4°F16.9°C 61.0°F16.1°C 95% 4.1 mph SE6.6 kmh SE 6.1 mph9.8 kmh 30.01 in1016.3 mb 0.02 in0.5 mm 0.04 in1.0 mm 0.02 in0.5 mm
01:45 AM 63.0°F17.2°C 61.9°F16.6°C 96% 12.1 mph SE19.5 kmh SE 12.2 mph19.6 kmh 30.00 in1015.9 mb 0.02 in0.5 mm 0.00 in0.0 mm 0.02 in0.5 mm
02:00 AM 63.4°F17.4°C 62.0°F16.7°C 95% 12.1 mph SSE19.5 kmh SSE 14.2 mph22.9 kmh 29.98 in1015.2 mb 0.02 in0.5 mm 0.00 in0.0 mm 0.02 in0.5 mm
02:15 AM 63.7°F17.6°C 62.3°F16.8°C 95% 11.1 mph SE17.9 kmh SE 11.2 mph18.0 kmh 29.98 in1015.2 mb 0.01 in0.3 mm 0.00 in0.0 mm 0.02 in0.5 mm
02:30 AM 64.0°F17.8°C 62.6°F17.0°C 95% 8.1 mph SSE13.0 kmh SSE 13.2 mph21.2 kmh 29.98 in1015.2 mb 0.01 in0.3 mm 0.00 in0.0 mm 0.02 in0.5 mm
02:45 AM 64.2°F17.9°C 63.1°F17.3°C 96% 8.1 mph S13.0 kmh S 19.2 mph30.9 kmh 29.97 in1014.9 mb 0.01 in0.3 mm 0.00 in0.0 mm 0.02 in0.5 mm
03:00 AM 64.5°F18.1°C 63.1°F17.3°C 95% 9.1 mph ESE14.6 kmh ESE 17.2 mph27.7 kmh 29.97 in1014.9 mb 0.02 in0.5 mm 0.01 in0.3 mm 0.03 in0.8 mm
03:15 AM 64.5°F18.1°C 63.1°F17.3°C 95% 10.1 mph SE16.3 kmh SE 13.2 mph21.2 kmh 29.96 in1014.6 mb 0.04 in1.0 mm 0.08 in2.0 mm 0.05 in1.3 mm
03:30 AM 64.7°F18.2°C 63.3°F17.4°C 95% 8.1 mph SE13.0 kmh SE 11.2 mph18.0 kmh 29.95 in1014.2 mb 0.03 in0.8 mm 0.00 in0.0 mm 0.05 in1.3 mm
03:45 AM 64.9°F18.3°C 63.8°F17.7°C 96% 11.1 mph S17.9 kmh S 20.2 mph32.5 kmh 29.94 in1013.9 mb 0.05 in1.3 mm 0.08 in2.0 mm 0.07 in1.8 mm
04:00 AM 64.9°F18.3°C 63.8°F17.7°C 96% 5.1 mph SSE8.2 kmh SSE 19.2 mph30.9 kmh 29.94 in1013.9 mb 0.06 in1.5 mm 0.01 in0.3 mm 0.08 in2.0 mm
04:15 AM 65.0°F18.3°C 63.9°F17.7°C 96% 4.1 mph S6.6 kmh S 12.2 mph19.6 kmh 29.94 in1013.9 mb 0.06 in1.5 mm 0.00 in0.0 mm 0.08 in2.0 mm
04:30 AM 65.1°F18.4°C 64.0°F17.8°C 96% 7.1 mph S11.4 kmh S 12.2 mph19.6 kmh 29.93 in1013.5 mb 0.06 in1.5 mm 0.00 in0.0 mm 0.08 in2.0 mm
04:45 AM 65.2°F18.4°C 64.1°F17.8°C 96% 2.0 mph S3.2 kmh S 12.2 mph19.6 kmh 29.93 in1013.5 mb 0.09 in2.3 mm 0.12 in3.0 mm 0.11 in2.8 mm
05:00 AM 65.1°F18.4°C 64.0°F17.8°C 96% 5.1 mph S8.2 kmh S 10.1 mph16.3 kmh 29.92 in1013.2 mb 0.12 in3.0 mm 0.04 in1.0 mm 0.14 in3.6 mm
05:15 AM 65.2°F18.4°C 64.1°F17.8°C 96% 5.1 mph S8.2 kmh S 11.2 mph18.0 kmh 29.92 in1013.2 mb 0.14 in3.6 mm 0.08 in2.0 mm 0.16 in4.1 mm
05:30 AM 65.2°F18.4°C 64.1°F17.8°C 96% 5.1 mph S8.2 kmh S 12.2 mph19.6 kmh 29.92 in1013.2 mb 0.18 in4.6 mm 0.16 in4.1 mm 0.20 in5.1 mm
05:45 AM 65.2°F18.4°C 64.1°F17.8°C 96% 7.1 mph S11.4 kmh S 8.1 mph13.0 kmh 29.91 in1012.9 mb 0.16 in4.1 mm 0.00 in0.0 mm 0.20 in5.1 mm
06:00 AM 64.9°F18.3°C 63.8°F17.7°C 96% 6.1 mph S9.8 kmh S 6.1 mph9.8 kmh 29.91 in1012.9 mb 0.12 in3.0 mm 0.00 in0.0 mm 0.20 in5.1 mm
06:15 AM 65.0°F18.3°C 64.2°F17.9°C 97% 5.1 mph S8.2 kmh S 10.1 mph16.3 kmh 29.91 in1012.9 mb 0.08 in2.0 mm 0.00 in0.0 mm 0.20 in5.1 mm
06:30 AM 65.2°F18.4°C 64.4°F18.0°C 97% 5.1 mph S8.2 kmh S 9.1 mph14.6 kmh 29.90 in1012.5 mb 0.04 in1.0 mm 0.00 in0.0 mm 0.20 in5.1 mm
06:45 AM 65.2°F18.4°C 64.1°F17.8°C 96% 3.0 mph E4.8 kmh E 10.1 mph16.3 kmh 29.90 in1012.5 mb 0.02 in0.5 mm 0.00 in0.0 mm 0.20 in5.1 mm
07:00 AM 65.4°F18.6°C 64.3°F17.9°C 96% 5.1 mph SSE8.2 kmh SSE 8.1 mph13.0 kmh 29.90 in1012.5 mb 0.01 in0.3 mm 0.00 in0.0 mm 0.20 in5.1 mm
07:15 AM 65.4°F18.6°C 64.3°F17.9°C 96% 4.1 mph SSE6.6 kmh SSE 9.1 mph14.6 kmh 29.90 in1012.5 mb 0.01 in0.3 mm 0.00 in0.0 mm 0.20 in5.1 mm
07:30 AM 65.4°F18.6°C 64.3°F17.9°C 96% 7.1 mph S11.4 kmh S 10.1 mph16.3 kmh 29.90 in1012.5 mb 0.01 in0.3 mm 0.00 in0.0 mm 0.20 in5.1 mm
07:45 AM 65.4°F18.6°C 64.3°F17.9°C 96% 4.1 mph S6.6 kmh S 9.1 mph14.6 kmh 29.89 in1012.2 mb 0.01 in0.3 mm 0.00 in0.0 mm 0.20 in5.1 mm
08:00 AM 65.5°F18.6°C 64.7°F18.2°C 97% 5.1 mph SSW8.2 kmh SSW 15.2 mph24.5 kmh 29.90 in1012.5 mb 0.00 in0.0 mm 0.00 in0.0 mm 0.20 in5.1 mm
08:15 AM 65.6°F18.7°C 64.8°F18.2°C 97% 2.0 mph SSE3.2 kmh SSE 5.1 mph8.2 kmh 29.89 in1012.2 mb 0.00 in0.0 mm 0.00 in0.0 mm 0.20 in5.1 mm
08:30 AM 65.7°F18.7°C 64.9°F18.3°C 97% 3.0 mph S4.8 kmh S 7.1 mph11.4 kmh 29.89 in1012.2 mb 0.00 in0.0 mm 0.00 in0.0 mm 0.20 in5.1 mm
08:45 AM 65.8°F18.8°C 65.0°F18.3°C 97% 1.0 mph S1.6 kmh S 7.1 mph11.4 kmh 29.89 in1012.2 mb 0.06 in1.5 mm 0.24 in6.1 mm 0.26 in6.6 mm
09:00 AM 65.7°F18.7°C 64.9°F18.3°C 97% 1.0 mph S1.6 kmh S 3.1 mph5.0 kmh 29.89 in1012.2 mb 0.12 in3.0 mm 0.08 in2.0 mm 0.32 in8.1 mm
09:15 AM 65.8°F18.8°C 65.0°F18.3°C 97% 5.1 mph SE8.2 kmh SE 8.1 mph13.0 kmh 29.88 in1011.9 mb 0.14 in3.6 mm 0.08 in2.0 mm 0.34 in8.6 mm
09:30 AM 65.7°F18.7°C 64.9°F18.3°C 97% 2.0 mph S3.2 kmh S 8.1 mph13.0 kmh 29.88 in1011.9 mb 0.15 in3.8 mm 0.04 in1.0 mm 0.35 in8.9 mm
09:45 AM 66.0°F18.9°C 65.2°F18.4°C 97% 5.1 mph S8.2 kmh S 5.1 mph8.2 kmh 29.88 in1011.9 mb 0.17 in4.3 mm 0.08 in2.0 mm 0.37 in9.4 mm
10:00 AM 66.0°F18.9°C 65.2°F18.4°C 97% 4.1 mph SSW6.6 kmh SSW 9.1 mph14.6 kmh 29.88 in1011.9 mb 0.08 in2.0 mm 0.00 in0.0 mm 0.37 in9.4 mm
10:15 AM 66.1°F18.9°C 65.3°F18.5°C 97% 7.1 mph SSW11.4 kmh SSW 10.1 mph16.3 kmh 29.87 in1011.5 mb 0.04 in1.0 mm 0.00 in0.0 mm 0.37 in9.4 mm
10:30 AM 66.2°F19.0°C 65.1°F18.4°C 96% 2.0 mph SE3.2 kmh SE 8.1 mph13.0 kmh 29.86 in1011.2 mb 0.04 in1.0 mm 0.00 in0.0 mm 0.37 in9.4 mm
10:45 AM 66.6°F19.2°C 65.5°F18.6°C 96% 5.1 mph SSE8.2 kmh SSE 15.2 mph24.5 kmh 29.85 in1010.8 mb 0.00 in0.0 mm 0.00 in0.0 mm 0.37 in9.4 mm
11:00 AM 67.2°F19.6°C 66.1°F18.9°C 96% 3.0 mph S4.8 kmh S 14.2 mph22.9 kmh 29.84 in1010.5 mb 0.00 in0.0 mm 0.00 in0.0 mm 0.37 in9.4 mm
11:15 AM 67.3°F19.6°C 65.9°F18.8°C 95% 3.0 mph ESE4.8 kmh ESE 12.2 mph19.6 kmh 29.84 in1010.5 mb 0.00 in0.0 mm 0.00 in0.0 mm 0.37 in9.4 mm
11:30 AM 68.0°F20.0°C 65.9°F18.8°C 93% 10.1 mph SW16.3 kmh SW 11.2 mph18.0 kmh 29.82 in1009.8 mb 0.00 in0.0 mm 0.00 in0.0 mm 0.37 in9.4 mm
11:45 AM 68.2°F20.1°C 65.8°F18.8°C 92% 5.1 mph SSE8.2 kmh SSE 12.2 mph19.6 kmh 29.82 in1009.8 mb 0.00 in0.0 mm 0.00 in0.0 mm 0.37 in9.4 mm
12:00 PM 68.2°F20.1°C 65.8°F18.8°C 92% 5.1 mph SW8.2 kmh SW 6.1 mph9.8 kmh 29.81 in1009.5 mb 0.00 in0.0 mm 0.00 in0.0 mm 0.37 in9.4 mm
12:15 PM 68.4°F20.2°C 66.0°F18.9°C 92% 5.1 mph SSW8.2 kmh SSW 12.2 mph19.6 kmh 29.80 in1009.1 mb 0.00 in0.0 mm 0.00 in0.0 mm 0.37 in9.4 mm
12:30 PM 69.6°F20.9°C 66.8°F19.3°C 91% 11.1 mph S17.9 kmh S 11.2 mph18.0 kmh 29.78 in1008.5 mb 0.00 in0.0 mm 0.00 in0.0 mm 0.37 in9.4 mm
12:45 PM 70.1°F21.2°C 66.7°F19.3°C 89% 8.1 mph SSW13.0 kmh SSW 8.1 mph13.0 kmh 29.77 in1008.1 mb 0.00 in0.0 mm 0.00 in0.0 mm 0.37 in9.4 mm
01:00 PM 69.9°F21.1°C 66.5°F19.2°C 89% 4.1 mph SSE6.6 kmh SSE 8.1 mph13.0 kmh 29.76 in1007.8 mb 0.00 in0.0 mm 0.00 in0.0 mm 0.37 in9.4 mm
01:15 PM 69.6°F20.9°C 66.2°F19.0°C 89% 5.1 mph S8.2 kmh S 14.2 mph22.9 kmh 29.74 in1007.1 mb 0.00 in0.0 mm 0.00 in0.0 mm 0.37 in9.4 mm
01:30 PM 69.0°F20.6°C 66.3°F19.1°C 91% 3.0 mph SE4.8 kmh SE 7.1 mph11.4 kmh 29.72 in1006.4 mb 0.01 in0.3 mm 0.04 in1.0 mm 0.38 in9.7 mm
01:45 PM 68.4°F20.2°C 66.3°F19.1°C 93% 10.1 mph S16.3 kmh S 11.2 mph18.0 kmh 29.72 in1006.4 mb 0.01 in0.3 mm 0.00 in0.0 mm 0.38 in9.7 mm
02:00 PM 68.4°F20.2°C 66.3°F19.1°C 93% 3.0 mph SE4.8 kmh SE 13.2 mph21.2 kmh 29.72 in1006.4 mb 0.01 in0.3 mm 0.00 in0.0 mm 0.38 in9.7 mm
02:15 PM 68.2°F20.1°C 66.1°F18.9°C 93% 8.1 mph S13.0 kmh S 8.1 mph13.0 kmh 29.72 in1006.4 mb 0.01 in0.3 mm 0.00 in0.0 mm 0.38 in9.7 mm
02:30 PM 68.2°F20.1°C 66.1°F18.9°C 93% 3.0 mph SE4.8 kmh SE 9.1 mph14.6 kmh 29.72 in1006.4 mb 0.01 in0.3 mm 0.00 in0.0 mm 0.38 in9.7 mm
02:45 PM 68.1°F20.1°C 66.0°F18.9°C 93% 4.1 mph S6.6 kmh S 8.1 mph13.0 kmh 29.71 in1006.1 mb 0.00 in0.0 mm 0.00 in0.0 mm 0.38 in9.7 mm
03:00 PM 68.1°F20.1°C 66.0°F18.9°C 93% 8.1 mph S13.0 kmh S 9.1 mph14.6 kmh 29.71 in1006.1 mb 0.00 in0.0 mm 0.00 in0.0 mm 0.38 in9.7 mm
03:15 PM 67.9°F19.9°C 65.8°F18.8°C 93% 2.0 mph S3.2 kmh S 7.1 mph11.4 kmh 29.71 in1006.1 mb 0.00 in0.0 mm 0.00 in0.0 mm 0.38 in9.7 mm
03:30 PM 67.6°F19.8°C 65.5°F18.6°C 93% 6.1 mph S9.8 kmh S 10.1 mph16.3 kmh 29.69 in1005.4 mb 0.00 in0.0 mm 0.00 in0.0 mm 0.38 in9.7 mm
03:45 PM 67.4°F19.7°C 65.4°F18.6°C 93% 7.1 mph S11.4 kmh S 13.2 mph21.2 kmh 29.70 in1005.8 mb 0.01 in0.3 mm 0.04 in1.0 mm 0.39 in9.9 mm
04:00 PM 67.2°F19.6°C 65.5°F18.6°C 94% 8.1 mph SE13.0 kmh SE 8.1 mph13.0 kmh 29.68 in1005.1 mb 0.02 in0.5 mm 0.01 in0.3 mm 0.40 in10.2 mm
04:15 PM 66.9°F19.4°C 65.5°F18.6°C 95% 5.1 mph S8.2 kmh S 10.1 mph16.3 kmh 29.68 in1005.1 mb 0.03 in0.8 mm 0.04 in1.0 mm 0.41 in10.4 mm
04:30 PM 66.6°F19.2°C 65.2°F18.4°C 95% 4.1 mph S6.6 kmh S 9.1 mph14.6 kmh 29.67 in1004.7 mb 0.03 in0.8 mm 0.00 in0.0 mm 0.41 in10.4 mm
04:45 PM 66.7°F19.3°C 65.6°F18.7°C 96% 5.1 mph SE8.2 kmh SE 10.1 mph16.3 kmh 29.66 in1004.4 mb 0.02 in0.5 mm 0.00 in0.0 mm 0.41 in10.4 mm
05:00 PM 66.6°F19.2°C 65.2°F18.4°C 95% 5.1 mph S8.2 kmh S 6.1 mph9.8 kmh 29.66 in1004.4 mb 0.02 in0.5 mm 0.00 in0.0 mm 0.41 in10.4 mm
05:15 PM 66.5°F19.2°C 65.1°F18.4°C 95% 4.1 mph S6.6 kmh S 8.1 mph13.0 kmh 29.65 in1004.1 mb 0.01 in0.3 mm 0.00 in0.0 mm 0.41 in10.4 mm
05:30 PM 66.5°F19.2°C 65.1°F18.4°C 95% 2.0 mph ESE3.2 kmh ESE 13.2 mph21.2 kmh 29.64 in1003.7 mb 0.00 in0.0 mm 0.00 in0.0 mm 0.41 in10.4 mm
05:45 PM 66.4°F19.1°C 65.0°F18.3°C 95% 10.1 mph SE16.3 kmh SE 11.2 mph18.0 kmh 29.64 in1003.7 mb 0.00 in0.0 mm 0.00 in0.0 mm 0.41 in10.4 mm
06:00 PM 66.4°F19.1°C 65.0°F18.3°C 95% 8.1 mph S13.0 kmh S 8.1 mph13.0 kmh 29.64 in1003.7 mb 0.00 in0.0 mm 0.00 in0.0 mm 0.41 in10.4 mm
06:15 PM 66.3°F19.1°C 64.9°F18.3°C 95% 5.1 mph S8.2 kmh S 11.2 mph18.0 kmh 29.64 in1003.7 mb 0.00 in0.0 mm 0.00 in0.0 mm 0.41 in10.4 mm
06:30 PM 66.3°F19.1°C 64.9°F18.3°C 95% 8.1 mph S13.0 kmh S 11.2 mph18.0 kmh 29.64 in1003.7 mb 0.00 in0.0 mm 0.00 in0.0 mm 0.41 in10.4 mm
06:45 PM 66.4°F19.1°C 65.0°F18.3°C 95% 4.1 mph S6.6 kmh S 8.1 mph13.0 kmh 29.63 in1003.4 mb 0.00 in0.0 mm 0.00 in0.0 mm 0.41 in10.4 mm
07:00 PM 66.4°F19.1°C 64.7°F18.2°C 94% 3.0 mph SE4.8 kmh SE 10.1 mph16.3 kmh 29.63 in1003.4 mb 0.00 in0.0 mm 0.00 in0.0 mm 0.41 in10.4 mm
07:15 PM 66.4°F19.1°C 64.7°F18.2°C 94% 13.1 mph S21.1 kmh S 13.2 mph21.2 kmh 29.63 in1003.4 mb 0.00 in0.0 mm 0.00 in0.0 mm 0.41 in10.4 mm
07:30 PM 66.3°F19.1°C 64.6°F18.1°C 94% 8.1 mph S13.0 kmh S 10.1 mph16.3 kmh 29.62 in1003.0 mb 0.00 in0.0 mm 0.00 in0.0 mm 0.41 in10.4 mm
07:45 PM 66.4°F19.1°C 64.7°F18.2°C 94% 9.1 mph SSE14.6 kmh SSE 12.2 mph19.6 kmh 29.61 in1002.7 mb 0.00 in0.0 mm 0.00 in0.0 mm 0.41 in10.4 mm
08:00 PM 66.4°F19.1°C 64.7°F18.2°C 94% 2.0 mph ESE3.2 kmh ESE 7.1 mph11.4 kmh 29.60 in1002.4 mb 0.00 in0.0 mm 0.00 in0.0 mm 0.41 in10.4 mm
08:15 PM 66.5°F19.2°C 64.5°F18.1°C 93% 2.0 mph SW3.2 kmh SW 8.1 mph13.0 kmh 29.60 in1002.4 mb 0.00 in0.0 mm 0.00 in0.0 mm 0.41 in10.4 mm
08:30 PM 66.4°F19.1°C 64.4°F18.0°C 93% 2.0 mph S3.2 kmh S 6.1 mph9.8 kmh 29.57 in1001.4 mb 0.00 in0.0 mm 0.00 in0.0 mm 0.41 in10.4 mm
08:45 PM 66.2°F19.0°C 64.2°F17.9°C 93% 3.0 mph S4.8 kmh S 5.1 mph8.2 kmh 29.57 in1001.4 mb 0.00 in0.0 mm 0.00 in0.0 mm 0.41 in10.4 mm
09:00 PM 66.1°F18.9°C 64.4°F18.0°C 94% 5.1 mph S8.2 kmh S 9.1 mph14.6 kmh 29.56 in1001.0 mb 0.00 in0.0 mm 0.00 in0.0 mm 0.41 in10.4 mm
09:15 PM 66.0°F18.9°C 64.3°F17.9°C 94% 4.1 mph E6.6 kmh E 9.1 mph14.6 kmh 29.54 in1000.3 mb 0.00 in0.0 mm 0.00 in0.0 mm 0.41 in10.4 mm
09:30 PM 65.9°F18.8°C 64.2°F17.9°C 94% 2.0 mph SE3.2 kmh SE 7.1 mph11.4 kmh 29.54 in1000.3 mb 0.00 in0.0 mm 0.00 in0.0 mm 0.41 in10.4 mm
09:45 PM 65.9°F18.8°C 64.2°F17.9°C 94% 11.1 mph SE17.9 kmh SE 14.2 mph22.9 kmh 29.52 in999.7 mb 0.00 in0.0 mm 0.00 in0.0 mm 0.41 in10.4 mm
10:00 PM 65.8°F18.8°C 64.1°F17.8°C 94% 8.1 mph SSE13.0 kmh SSE 14.2 mph22.9 kmh 29.51 in999.3 mb 0.00 in0.0 mm 0.00 in0.0 mm 0.41 in10.4 mm
10:15 PM 65.5°F18.6°C 63.8°F17.7°C 94% 8.1 mph SE13.0 kmh SE 13.2 mph21.2 kmh 29.50 in999.0 mb 0.00 in0.0 mm 0.00 in0.0 mm 0.41 in10.4 mm
10:30 PM 65.2°F18.4°C 63.5°F17.5°C 94% 12.1 mph SE19.5 kmh SE 13.2 mph21.2 kmh 29.50 in999.0 mb 0.01 in0.3 mm 0.04 in1.0 mm 0.42 in10.7 mm
10:45 PM 63.3°F17.4°C 60.7°F15.9°C 91% 12.1 mph SSW19.5 kmh SSW 14.2 mph22.9 kmh 29.53 in1000.0 mb 0.14 in3.6 mm 0.52 in13.2 mm 0.55 in14.0 mm
11:00 PM 60.8°F16.0°C 57.9°F14.4°C 90% 7.1 mph SW11.4 kmh SW 18.2 mph29.3 kmh 29.52 in999.7 mb 0.15 in3.8 mm 0.01 in0.3 mm 0.56 in14.2 mm
11:15 PM 60.0°F15.6°C 57.7°F14.3°C 92% 8.1 mph SW13.0 kmh SW 14.2 mph22.9 kmh 29.53 in1000.0 mb 0.16 in4.1 mm 0.04 in1.0 mm 0.57 in14.5 mm
11:30 PM 59.2°F15.1°C 57.2°F14.0°C 93% 10.1 mph SSW16.3 kmh SSW 16.2 mph26.1 kmh 29.52 in999.7 mb 0.17 in4.3 mm 0.04 in1.0 mm 0.58 in14.7 mm
11:45 PM 58.7°F14.8°C 56.7°F13.7°C 93% 5.1 mph SW8.2 kmh SW 8.1 mph13.0 kmh 29.51 in999.3 mb 0.07 in1.8 mm 0.00 in0.0 mm 0.58 in14.7 mm